Time;durP1;ratioP1;P1;durP2;ratioP2;P2;SDS_P1;SDS_P2;PMS_P1;PMS_P2;Temp;Humidity;BMP_temperature;BMP_pressure;BME280_temperature;BME280_humidity;BME280_pressure;Samples;Min_cycle;Max_cycle;Signal;HPM_P1;HPM_P2
2023/11/15 00:00:30;;;;;;;6.80;2.00;;;9.10;99.90;;;;;;494217;240;28053;-73
2023/11/15 00:02:31;;;;;;;9.43;2.20;;;9.10;99.90;;;;;;494229;239;28097;-73
2023/11/15 00:04:33;;;;;;;7.27;2.07;;;9.20;99.90;;;;;;494177;240;27995;-73
2023/11/15 00:06:37;;;;;;;2.80;2.03;;;9.20;99.90;;;;;;494172;240;27913;-73
2023/11/15 00:08:38;;;;;;;3.90;2.10;;;9.10;99.90;;;;;;494150;240;27939;-73
2023/11/15 00:10:40;;;;;;;4.20;1.83;;;9.10;99.90;;;;;;494228;240;28016;-73
2023/11/15 00:12:40;;;;;;;3.80;1.80;;;9.10;99.90;;;;;;494188;240;28478;-72
2023/11/15 00:14:42;;;;;;;7.20;2.20;;;9.10;99.90;;;;;;494165;240;28411;-73
2023/11/15 00:16:43;;;;;;;6.00;2.07;;;9.10;99.90;;;;;;494180;240;28485;-73
2023/11/15 00:18:44;;;;;;;9.07;2.00;;;9.10;99.90;;;;;;494164;240;28187;-73
2023/11/15 00:20:45;;;;;;;8.73;1.90;;;9.10;99.90;;;;;;494151;240;28405;-72
2023/11/15 00:22:47;;;;;;;6.33;1.90;;;9.10;99.90;;;;;;494170;240;28499;-72
2023/11/15 00:24:48;;;;;;;5.33;1.70;;;9.10;99.90;;;;;;494166;240;27743;-74
2023/11/15 00:26:50;;;;;;;7.97;2.10;;;9.10;99.90;;;;;;494137;240;27923;-72
2023/11/15 00:28:50;;;;;;;5.87;1.80;;;9.10;99.90;;;;;;494196;240;27972;-72
2023/11/15 00:30:52;;;;;;;6.77;2.27;;;9.10;99.90;;;;;;494212;239;28050;-72
2023/11/15 00:32:53;;;;;;;6.13;2.20;;;9.10;99.90;;;;;;494242;239;27983;-72
2023/11/15 00:34:54;;;;;;;8.53;2.40;;;9.10;99.90;;;;;;494117;240;27704;-73
2023/11/15 00:36:55;;;;;;;8.90;2.73;;;9.10;99.90;;;;;;494154;240;27900;-72
2023/11/15 00:38:57;;;;;;;9.03;2.00;;;9.10;99.90;;;;;;494169;238;28048;-73
2023/11/15 00:40:58;;;;;;;5.13;1.67;;;9.10;99.90;;;;;;494196;240;28263;-73
2023/11/15 00:42:59;;;;;;;4.77;2.37;;;9.10;99.90;;;;;;494142;240;27942;-73
2023/11/15 00:45:01;;;;;;;5.50;2.00;;;9.10;99.90;;;;;;494170;240;27937;-73
2023/11/15 00:47:03;;;;;;;5.77;2.60;;;9.10;99.90;;;;;;494164;239;27930;-72
2023/11/15 00:49:03;;;;;;;6.83;2.53;;;9.10;99.90;;;;;;494185;240;27865;-72
2023/11/15 00:51:04;;;;;;;6.70;2.03;;;9.10;99.90;;;;;;494249;239;28469;-73
2023/11/15 00:53:05;;;;;;;3.23;2.27;;;9.10;99.90;;;;;;494161;240;28362;-73
2023/11/15 00:55:07;;;;;;;6.00;2.33;;;9.10;99.90;;;;;;494142;240;28371;-72
2023/11/15 00:57:08;;;;;;;6.17;2.00;;;9.10;99.90;;;;;;494233;240;29466;-72
2023/11/15 00:59:12;;;;;;;8.77;1.97;;;9.10;99.90;;;;;;494218;240;28492;-73
2023/11/15 01:01:14;;;;;;;4.90;2.40;;;9.10;99.90;;;;;;494171;240;28603;-72
2023/11/15 01:03:26;;;;;;;6.13;2.43;;;9.10;99.90;;;;;;494174;240;28674;-72
2023/11/15 01:05:23;;;;;;;8.50;2.43;;;9.10;99.90;;;;;;493967;240;27930;-72
2023/11/15 01:07:23;;;;;;;3.60;2.20;;;9.10;99.90;;;;;;494140;240;28081;-72
2023/11/15 01:09:24;;;;;;;8.13;2.70;;;9.10;99.90;;;;;;494169;240;27981;-73
2023/11/15 01:11:29;;;;;;;4.57;1.93;;;9.10;99.90;;;;;;494160;240;27917;-72
2023/11/15 01:13:30;;;;;;;5.37;1.90;;;9.10;99.90;;;;;;494204;240;29104;-72
2023/11/15 01:15:31;;;;;;;8.87;3.43;;;9.10;99.90;;;;;;494107;240;28560;-72
2023/11/15 01:17:35;;;;;;;3.40;1.90;;;9.10;99.90;;;;;;494149;240;28475;-73
2023/11/15 01:19:37;;;;;;;7.00;2.07;;;9.00;99.90;;;;;;494167;240;27911;-73
2023/11/15 01:21:38;;;;;;;6.90;1.83;;;9.00;99.90;;;;;;494159;240;28042;-72
2023/11/15 01:23:39;;;;;;;8.73;1.73;;;9.00;99.90;;;;;;494244;240;27774;-73
2023/11/15 01:25:40;;;;;;;4.50;1.93;;;9.00;99.90;;;;;;494262;239;28200;-74
2023/11/15 01:27:42;;;;;;;3.63;1.60;;;9.00;99.90;;;;;;494254;240;28062;-72
2023/11/15 01:29:43;;;;;;;11.60;2.03;;;9.00;99.90;;;;;;494222;240;27951;-73
2023/11/15 01:31:44;;;;;;;7.60;1.97;;;9.00;99.90;;;;;;494171;240;27955;-72
2023/11/15 01:33:45;;;;;;;5.57;1.90;;;9.00;99.90;;;;;;494143;239;27980;-73
2023/11/15 01:35:47;;;;;;;10.50;2.50;;;9.00;99.90;;;;;;494147;239;28437;-73
2023/11/15 01:37:50;;;;;;;11.50;1.87;;;9.00;99.90;;;;;;494240;240;28394;-73
2023/11/15 01:39:50;;;;;;;7.40;2.10;;;9.00;99.90;;;;;;494095;240;28420;-72
2023/11/15 01:41:51;;;;;;;10.40;2.00;;;8.90;99.90;;;;;;494106;240;29185;-72
2023/11/15 01:43:52;;;;;;;5.70;1.80;;;8.90;99.90;;;;;;494159;240;27464;-72
2023/11/15 01:45:53;;;;;;;4.60;2.00;;;9.00;99.90;;;;;;494163;240;28064;-73
2023/11/15 01:47:54;;;;;;;6.57;1.70;;;9.00;99.90;;;;;;494180;240;27569;-72
2023/11/15 01:49:55;;;;;;;9.13;2.40;;;9.00;99.90;;;;;;494213;240;27856;-72
2023/11/15 01:51:57;;;;;;;3.63;1.87;;;9.00;99.90;;;;;;494167;238;27728;-72
2023/11/15 01:53:58;;;;;;;7.87;2.00;;;8.90;99.90;;;;;;494218;240;28094;-72
2023/11/15 01:55:59;;;;;;;7.27;1.90;;;9.00;99.90;;;;;;494211;240;27888;-73
2023/11/15 01:58:00;;;;;;;10.00;2.20;;;8.90;99.90;;;;;;494197;239;27825;-72
2023/11/15 02:00:02;;;;;;;8.20;2.10;;;8.90;99.90;;;;;;494219;240;27867;-72
2023/11/15 02:02:03;;;;;;;4.40;1.87;;;8.90;99.90;;;;;;494152;240;27977;-73
2023/11/15 02:04:04;;;;;;;6.07;2.33;;;8.90;99.90;;;;;;494181;240;27944;-72
2023/11/15 02:06:06;;;;;;;11.00;2.27;;;9.00;99.90;;;;;;494156;240;27990;-73
2023/11/15 02:08:07;;;;;;;8.17;2.40;;;8.90;99.90;;;;;;494085;240;27679;-72
2023/11/15 02:10:08;;;;;;;6.10;1.97;;;8.90;99.90;;;;;;494141;240;28017;-72
2023/11/15 02:12:09;;;;;;;3.97;2.40;;;8.90;99.90;;;;;;494165;240;28448;-73
2023/11/15 02:14:10;;;;;;;7.30;3.57;;;8.90;99.90;;;;;;494261;240;28361;-73
2023/11/15 02:16:12;;;;;;;7.30;2.93;;;9.00;99.90;;;;;;494206;240;28460;-73
2023/11/15 02:20:10;;;;;;;9.77;2.70;;;9.00;99.90;;;;;;502154;233;38683;-71
2023/11/15 02:22:11;;;;;;;5.87;2.80;;;8.90;99.90;;;;;;494162;240;28044;-73
2023/11/15 02:24:13;;;;;;;9.73;2.50;;;8.90;99.90;;;;;;494222;240;27940;-72
2023/11/15 02:26:14;;;;;;;7.23;2.47;;;8.90;99.90;;;;;;494220;240;27962;-72
2023/11/15 02:28:15;;;;;;;8.87;2.20;;;8.90;99.90;;;;;;494205;240;28028;-72
2023/11/15 02:30:16;;;;;;;10.00;1.87;;;8.90;99.90;;;;;;494142;240;27969;-72
2023/11/15 02:32:17;;;;;;;7.73;2.63;;;8.90;99.90;;;;;;494140;240;28475;-73
2023/11/15 02:34:19;;;;;;;10.40;2.10;;;8.90;99.90;;;;;;494143;240;28283;-72
2023/11/15 02:36:20;;;;;;;9.73;2.27;;;8.90;99.90;;;;;;494125;240;28507;-72
2023/11/15 02:38:21;;;;;;;7.10;2.20;;;8.90;99.90;;;;;;494126;240;30404;-72
2023/11/15 02:40:22;;;;;;;4.70;1.80;;;8.90;99.90;;;;;;494140;240;28291;-72
2023/11/15 02:42:24;;;;;;;8.00;2.00;;;8.90;99.90;;;;;;494172;240;27968;-71
2023/11/15 02:44:25;;;;;;;7.17;2.40;;;9.00;99.90;;;;;;494247;240;28053;-72
2023/11/15 02:46:26;;;;;;;7.73;2.37;;;9.00;99.90;;;;;;494255;240;27622;-72
2023/11/15 02:48:27;;;;;;;3.17;2.30;;;8.90;99.90;;;;;;494223;240;27727;-73
2023/11/15 02:50:32;;;;;;;6.30;1.83;;;8.90;99.90;;;;;;494091;240;27934;-72
2023/11/15 02:52:35;;;;;;;3.80;2.00;;;9.00;99.90;;;;;;494181;240;27991;-72
2023/11/15 02:54:34;;;;;;;16.27;2.33;;;8.90;99.90;;;;;;494064;240;27970;-72
2023/11/15 02:56:35;;;;;;;9.90;2.10;;;8.90;99.90;;;;;;494228;240;27976;-71
2023/11/15 02:58:37;;;;;;;7.27;1.90;;;8.90;99.90;;;;;;494169;237;28260;-72
2023/11/15 03:00:38;;;;;;;11.00;2.23;;;9.00;99.90;;;;;;494100;237;28341;-72
2023/11/15 03:02:39;;;;;;;4.00;1.57;;;8.90;99.90;;;;;;494120;240;28424;-72
2023/11/15 03:04:41;;;;;;;12.17;2.63;;;8.90;99.90;;;;;;494150;240;28462;-72
2023/11/15 03:06:42;;;;;;;7.33;1.90;;;8.90;99.90;;;;;;494129;240;27992;-73
2023/11/15 03:08:43;;;;;;;5.90;1.87;;;8.90;99.90;;;;;;494153;240;27912;-72
2023/11/15 03:10:44;;;;;;;11.33;3.77;;;8.90;99.90;;;;;;494140;240;27961;-73
2023/11/15 03:12:46;;;;;;;4.40;2.17;;;8.90;99.90;;;;;;494144;237;27798;-72
2023/11/15 03:14:47;;;;;;;5.93;2.10;;;8.90;99.90;;;;;;494178;240;27745;-71
2023/11/15 03:16:48;;;;;;;2.93;1.70;;;8.90;99.90;;;;;;494153;240;27941;-73
2023/11/15 03:18:50;;;;;;;7.70;2.13;;;8.90;99.90;;;;;;494244;240;27450;-72
2023/11/15 03:20:51;;;;;;;9.87;2.87;;;8.90;99.90;;;;;;494240;240;27966;-72
2023/11/15 03:22:52;;;;;;;4.90;1.83;;;8.90;99.90;;;;;;494157;240;27962;-72
2023/11/15 03:24:53;;;;;;;10.40;2.30;;;8.90;99.90;;;;;;494164;240;28000;-72
2023/11/15 03:26:54;;;;;;;5.33;1.80;;;8.90;99.90;;;;;;494174;240;28008;-72
2023/11/15 03:28:56;;;;;;;14.80;2.50;;;8.90;99.90;;;;;;494189;240;27919;-72
2023/11/15 03:30:57;;;;;;;5.80;2.10;;;8.90;99.90;;;;;;494089;240;27822;-73
2023/11/15 03:32:58;;;;;;;7.90;1.90;;;8.90;99.90;;;;;;494068;241;28610;-72
2023/11/15 03:34:59;;;;;;;10.03;3.10;;;8.90;99.90;;;;;;494164;241;28074;-72
2023/11/15 03:37:00;;;;;;;7.60;2.43;;;8.90;99.90;;;;;;494138;237;28437;-74
2023/11/15 03:39:02;;;;;;;11.67;2.30;;;8.90;99.90;;;;;;494057;241;28404;-72
2023/11/15 03:41:03;;;;;;;3.67;1.90;;;9.00;99.90;;;;;;494066;241;27704;-72
2023/11/15 03:43:04;;;;;;;13.60;2.10;;;8.90;99.90;;;;;;494057;241;27870;-72
2023/11/15 03:45:05;;;;;;;9.03;2.10;;;9.00;99.90;;;;;;494063;241;27714;-72
2023/11/15 03:47:07;;;;;;;9.40;2.17;;;9.00;99.90;;;;;;494054;241;27621;-72
2023/11/15 03:49:08;;;;;;;4.60;2.00;;;9.00;99.90;;;;;;494102;241;27604;-72
2023/11/15 03:51:09;;;;;;;10.23;2.30;;;9.00;99.90;;;;;;494142;241;28065;-72
2023/11/15 03:53:11;;;;;;;12.40;2.53;;;9.00;99.90;;;;;;494038;241;28087;-73
2023/11/15 03:55:12;;;;;;;5.30;1.97;;;9.00;99.90;;;;;;494153;241;27937;-72
2023/11/15 03:57:13;;;;;;;3.37;1.70;;;9.00;99.90;;;;;;494001;241;27619;-73
2023/11/15 03:59:14;;;;;;;7.23;2.40;;;9.00;99.90;;;;;;493973;237;28024;-72
2023/11/15 04:01:15;;;;;;;4.23;1.67;;;9.00;99.90;;;;;;494054;241;27680;-71
2023/11/15 04:03:17;;;;;;;8.37;2.33;;;9.00;99.90;;;;;;494016;241;27972;-72
2023/11/15 04:05:18;;;;;;;5.93;2.23;;;9.00;99.90;;;;;;494037;241;28316;-73
2023/11/15 04:07:20;;;;;;;3.33;1.80;;;9.00;99.90;;;;;;494008;241;28106;-72
2023/11/15 04:09:20;;;;;;;11.73;2.40;;;9.00;99.90;;;;;;494108;241;28556;-71
2023/11/15 04:11:22;;;;;;;7.87;2.67;;;8.90;99.90;;;;;;494152;241;28442;-72
2023/11/15 04:13:23;;;;;;;9.40;3.13;;;8.90;99.90;;;;;;494065;241;28445;-73
2023/11/15 04:15:24;;;;;;;5.33;2.30;;;8.90;99.90;;;;;;494012;241;27926;-72
2023/11/15 04:17:25;;;;;;;19.70;16.47;;;8.90;99.90;;;;;;494120;237;27845;-72
2023/11/15 04:19:27;;;;;;;7.73;5.90;;;8.90;99.90;;;;;;494136;239;27838;-73
2023/11/15 04:21:28;;;;;;;8.33;2.97;;;8.90;99.90;;;;;;494040;241;28165;-71
2023/11/15 04:23:29;;;;;;;5.30;2.30;;;8.90;99.90;;;;;;493998;241;28057;-72
2023/11/15 04:25:31;;;;;;;13.30;3.07;;;8.80;99.90;;;;;;494033;241;27953;-71
2023/11/15 04:27:32;;;;;;;7.03;2.60;;;8.90;99.90;;;;;;494086;241;27915;-72
2023/11/15 04:29:33;;;;;;;10.60;2.40;;;8.90;99.90;;;;;;494150;241;27682;-73
2023/11/15 04:31:35;;;;;;;11.87;2.60;;;8.90;99.90;;;;;;494101;241;27888;-72
2023/11/15 04:33:35;;;;;;;12.43;3.00;;;8.90;99.90;;;;;;494010;241;27973;-72
2023/11/15 04:35:37;;;;;;;4.90;1.90;;;8.90;99.90;;;;;;494008;239;28971;-72
2023/11/15 04:37:38;;;;;;;5.47;2.30;;;8.90;99.90;;;;;;494021;241;28061;-72
2023/11/15 04:39:39;;;;;;;7.57;2.30;;;8.90;99.90;;;;;;494037;241;28549;-73
2023/11/15 04:41:40;;;;;;;6.40;2.10;;;8.90;99.90;;;;;;494032;241;28396;-72
2023/11/15 04:43:42;;;;;;;10.93;2.37;;;8.90;99.90;;;;;;494075;241;28428;-72
2023/11/15 04:45:43;;;;;;;7.13;3.27;;;8.90;99.90;;;;;;494111;241;28369;-71
2023/11/15 04:47:46;;;;;;;7.30;2.17;;;8.90;99.90;;;;;;494038;241;27575;-72
2023/11/15 04:49:45;;;;;;;6.23;2.30;;;8.90;99.90;;;;;;493952;241;28115;-73
2023/11/15 04:51:47;;;;;;;8.80;2.77;;;8.90;99.90;;;;;;494010;241;28044;-72
2023/11/15 04:53:48;;;;;;;12.57;2.87;;;8.90;99.90;;;;;;494024;241;28065;-72
2023/11/15 04:55:50;;;;;;;9.10;2.57;;;8.90;99.90;;;;;;494094;237;27852;-72
2023/11/15 04:57:50;;;;;;;7.40;2.40;;;8.90;99.90;;;;;;494126;241;27953;-72
2023/11/15 04:59:52;;;;;;;9.10;2.80;;;8.90;99.90;;;;;;494092;241;28012;-72
2023/11/15 05:01:53;;;;;;;6.70;2.30;;;8.90;99.90;;;;;;494111;241;27924;-72
2023/11/15 05:03:54;;;;;;;13.97;2.40;;;8.90;99.90;;;;;;494018;241;27984;-72
2023/11/15 05:05:55;;;;;;;7.10;2.70;;;8.90;99.90;;;;;;494018;241;27984;-72
2023/11/15 05:07:57;;;;;;;6.90;2.40;;;8.90;99.90;;;;;;494021;241;27920;-72
2023/11/15 05:09:58;;;;;;;10.63;3.03;;;8.90;99.90;;;;;;494000;241;28469;-73
2023/11/15 05:12:00;;;;;;;11.00;3.33;;;8.90;99.90;;;;;;494037;241;28506;-72
2023/11/15 05:14:00;;;;;;;7.20;2.07;;;8.90;99.90;;;;;;494050;237;27829;-72
2023/11/15 05:16:03;;;;;;;6.03;2.90;;;8.80;99.90;;;;;;494041;241;28158;-73
2023/11/15 05:18:03;;;;;;;3.90;2.33;;;8.80;99.90;;;;;;493780;241;27700;-72
2023/11/15 05:20:05;;;;;;;9.73;2.47;;;8.80;99.90;;;;;;494018;241;27509;-72
2023/11/15 05:22:05;;;;;;;3.37;2.10;;;8.70;99.90;;;;;;494057;241;27996;-72
2023/11/15 05:24:07;;;;;;;10.53;2.90;;;8.80;99.90;;;;;;494140;241;27823;-72
2023/11/15 05:26:08;;;;;;;10.43;2.40;;;8.80;99.90;;;;;;494131;241;28018;-72
2023/11/15 05:28:10;;;;;;;6.10;2.43;;;8.80;99.90;;;;;;494096;241;28099;-72
2023/11/15 05:30:10;;;;;;;8.83;2.60;;;8.80;99.90;;;;;;494082;237;28010;-72
2023/11/15 05:32:12;;;;;;;5.23;2.23;;;8.80;99.90;;;;;;494111;241;28183;-73
2023/11/15 05:34:13;;;;;;;10.30;3.27;;;8.80;99.90;;;;;;494033;241;28089;-72
2023/11/15 05:36:15;;;;;;;5.20;2.13;;;8.70;99.90;;;;;;494009;241;27863;-72
2023/11/15 05:38:16;;;;;;;13.60;2.70;;;8.70;99.90;;;;;;493938;241;28062;-72
2023/11/15 05:40:17;;;;;;;10.50;2.70;;;8.80;99.90;;;;;;494001;241;27991;-72
2023/11/15 05:42:18;;;;;;;7.40;2.10;;;8.80;99.90;;;;;;493966;241;27990;-72
2023/11/15 05:44:19;;;;;;;15.50;3.20;;;8.80;99.90;;;;;;493994;241;27914;-72
2023/11/15 05:46:21;;;;;;;5.03;2.20;;;8.80;99.90;;;;;;494008;241;27871;-72
2023/11/15 05:48:22;;;;;;;7.17;2.30;;;8.80;99.90;;;;;;493896;241;27923;-72
2023/11/15 05:50:23;;;;;;;7.77;3.00;;;8.80;99.90;;;;;;493874;237;28295;-72
2023/11/15 05:52:25;;;;;;;8.30;2.53;;;8.80;99.90;;;;;;494039;241;28543;-72
2023/11/15 05:54:27;;;;;;;6.93;2.70;;;8.80;99.90;;;;;;494033;241;28505;-72
2023/11/15 05:56:27;;;;;;;11.13;2.53;;;8.80;99.90;;;;;;494033;241;27976;-72
2023/11/15 05:58:28;;;;;;;10.57;2.83;;;8.90;99.90;;;;;;494110;241;27786;-72
2023/11/15 06:00:31;;;;;;;9.40;2.30;;;8.80;99.90;;;;;;494020;241;27858;-72
2023/11/15 06:02:31;;;;;;;9.47;2.20;;;8.80;99.90;;;;;;493876;241;27764;-71
2023/11/15 06:04:32;;;;;;;6.73;2.17;;;8.90;99.90;;;;;;493997;241;27802;-72
2023/11/15 06:06:33;;;;;;;5.17;2.00;;;8.80;99.90;;;;;;494092;241;28089;-73
2023/11/15 06:08:34;;;;;;;4.70;1.77;;;8.80;99.90;;;;;;494111;241;27945;-74
2023/11/15 06:10:36;;;;;;;8.33;2.23;;;8.70;99.90;;;;;;494101;241;28040;-71
2023/11/15 06:12:38;;;;;;;4.20;1.97;;;8.70;99.90;;;;;;494099;241;27953;-72
2023/11/15 06:14:38;;;;;;;9.80;2.10;;;8.70;99.90;;;;;;493923;241;27840;-72
2023/11/15 06:16:39;;;;;;;8.63;2.30;;;8.60;99.90;;;;;;494106;241;28020;-71
2023/11/15 06:18:42;;;;;;;9.20;2.10;;;8.60;99.90;;;;;;494012;241;28024;-72
2023/11/15 06:20:42;;;;;;;4.73;2.37;;;8.50;99.90;;;;;;493944;237;28006;-72
2023/11/15 06:22:43;;;;;;;6.87;1.77;;;8.50;99.90;;;;;;494008;241;28057;-72
2023/11/15 06:24:44;;;;;;;5.30;1.90;;;8.50;99.90;;;;;;494002;241;27697;-72
2023/11/15 06:26:49;;;;;;;13.07;2.30;;;8.50;99.90;;;;;;494003;241;28524;-72
2023/11/15 06:28:49;;;;;;;12.37;2.30;;;8.50;99.90;;;;;;493928;241;28487;-72
2023/11/15 06:30:48;;;;;;;9.23;2.60;;;8.50;99.90;;;;;;493888;241;28239;-71
2023/11/15 06:32:49;;;;;;;9.10;2.20;;;8.50;99.90;;;;;;494008;241;28446;-72
2023/11/15 06:34:52;;;;;;;11.07;2.60;;;8.50;99.90;;;;;;494003;241;28227;-72
2023/11/15 06:36:54;;;;;;;9.67;2.73;;;8.50;99.90;;;;;;493883;241;27939;-72
2023/11/15 06:38:53;;;;;;;6.23;2.70;;;8.60;99.90;;;;;;493874;241;27832;-72
2023/11/15 06:40:54;;;;;;;7.53;2.40;;;8.50;99.90;;;;;;494084;241;28031;-72
2023/11/15 06:42:56;;;;;;;9.47;2.63;;;8.60;99.90;;;;;;494062;241;27867;-72
2023/11/15 06:44:57;;;;;;;8.87;2.43;;;8.60;99.90;;;;;;493976;237;27960;-74
2023/11/15 06:46:59;;;;;;;7.63;2.20;;;8.60;99.90;;;;;;494001;241;28005;-72
2023/11/15 06:48:59;;;;;;;10.40;2.70;;;8.60;99.90;;;;;;494065;241;27988;-73
2023/11/15 06:51:00;;;;;;;8.00;2.63;;;8.70;99.90;;;;;;494126;241;27929;-72
2023/11/15 06:53:02;;;;;;;13.17;2.53;;;8.60;99.90;;;;;;494011;241;28075;-72
2023/11/15 06:55:05;;;;;;;10.33;2.50;;;8.70;99.90;;;;;;494028;241;27720;-72
2023/11/15 06:57:06;;;;;;;8.53;2.40;;;8.70;99.90;;;;;;493954;241;28135;-72
2023/11/15 06:59:06;;;;;;;5.67;2.57;;;8.60;99.90;;;;;;494024;241;28447;-71
2023/11/15 07:01:07;;;;;;;9.87;2.60;;;8.60;99.90;;;;;;493988;241;29174;-72
2023/11/15 07:03:12;;;;;;;2.97;2.20;;;8.60;99.90;;;;;;494044;241;28394;-71
2023/11/15 07:05:10;;;;;;;4.03;2.37;;;8.60;99.90;;;;;;493835;241;28601;-72
2023/11/15 07:07:10;;;;;;;4.23;2.40;;;8.60;99.90;;;;;;494012;241;28412;-72
2023/11/15 07:09:12;;;;;;;18.90;2.80;;;8.60;99.90;;;;;;494048;241;27597;-72
2023/11/15 07:11:13;;;;;;;12.40;3.43;;;8.60;99.90;;;;;;493995;239;27870;-71
2023/11/15 07:13:16;;;;;;;11.60;2.90;;;8.60;99.90;;;;;;494125;241;28005;-72
2023/11/15 07:15:18;;;;;;;11.53;2.80;;;8.60;99.90;;;;;;493866;241;28062;-73
2023/11/15 07:17:19;;;;;;;10.17;2.83;;;8.60;99.90;;;;;;493884;241;27886;-72
2023/11/15 07:19:18;;;;;;;8.57;2.90;;;8.50;99.90;;;;;;493903;239;27983;-72
2023/11/15 07:21:19;;;;;;;9.13;3.00;;;8.50;99.90;;;;;;494068;241;28326;-74
2023/11/15 07:23:20;;;;;;;12.40;2.80;;;8.50;99.90;;;;;;494072;241;27956;-72
2023/11/15 07:25:22;;;;;;;11.23;2.97;;;8.50;99.90;;;;;;494064;241;28100;-72
2023/11/15 07:27:24;;;;;;;13.10;2.83;;;8.50;99.90;;;;;;494147;241;28134;-72
2023/11/15 07:29:26;;;;;;;12.00;2.97;;;8.50;99.90;;;;;;494123;241;28537;-71
2023/11/15 07:31:26;;;;;;;8.70;2.97;;;8.60;99.90;;;;;;494074;241;28500;-73
2023/11/15 07:33:27;;;;;;;11.83;3.30;;;8.60;99.90;;;;;;494116;241;28164;-72
2023/11/15 07:35:28;;;;;;;7.93;2.63;;;8.70;99.90;;;;;;494152;241;28404;-72
2023/11/15 07:37:29;;;;;;;15.00;3.63;;;8.70;99.90;;;;;;494124;241;27908;-72
2023/11/15 07:39:31;;;;;;;12.47;3.03;;;8.70;99.90;;;;;;494121;241;27949;-73
2023/11/15 07:41:36;;;;;;;11.27;3.23;;;8.70;99.90;;;;;;494141;241;27865;-72
2023/11/15 07:43:33;;;;;;;13.23;3.07;;;8.80;99.90;;;;;;493809;241;27935;-72
2023/11/15 07:45:35;;;;;;;11.60;2.77;;;8.80;99.90;;;;;;494091;237;28096;-71
2023/11/15 07:47:36;;;;;;;11.37;3.13;;;8.80;99.90;;;;;;494120;241;28403;-74
2023/11/15 07:49:37;;;;;;;4.40;2.23;;;8.90;99.90;;;;;;493979;241;27949;-72
2023/11/15 07:51:38;;;;;;;11.97;2.10;;;8.90;99.90;;;;;;493983;241;27941;-72
2023/11/15 07:53:39;;;;;;;10.00;2.63;;;8.90;99.90;;;;;;493989;241;27829;-72
2023/11/15 07:55:42;;;;;;;14.87;2.70;;;8.80;99.90;;;;;;493980;241;28322;-72
2023/11/15 07:57:42;;;;;;;7.00;2.23;;;8.90;99.90;;;;;;493997;241;28124;-73
2023/11/15 07:59:43;;;;;;;7.60;2.60;;;8.80;99.90;;;;;;494122;241;28399;-72
2023/11/15 08:01:44;;;;;;;8.83;2.40;;;8.80;99.90;;;;;;493997;241;28488;-72
2023/11/15 08:03:46;;;;;;;8.97;2.40;;;8.90;99.90;;;;;;493981;241;28434;-72
2023/11/15 08:05:47;;;;;;;6.10;2.57;;;8.90;99.90;;;;;;494033;241;27609;-72
2023/11/15 08:07:48;;;;;;;6.43;2.30;;;8.90;99.90;;;;;;494062;241;27975;-73
2023/11/15 08:09:49;;;;;;;7.03;2.27;;;8.90;99.90;;;;;;494037;241;28311;-72
2023/11/15 08:11:53;;;;;;;8.60;2.20;;;8.90;99.90;;;;;;494047;241;27862;-72
2023/11/15 08:13:53;;;;;;;7.80;2.47;;;8.90;99.90;;;;;;493974;241;28200;-72
2023/11/15 08:15:56;;;;;;;6.37;1.80;;;8.80;99.90;;;;;;494080;241;28064;-72
2023/11/15 08:17:56;;;;;;;12.73;3.47;;;8.80;99.90;;;;;;493906;241;27994;-73
2023/11/15 08:19:56;;;;;;;4.53;2.10;;;8.90;99.90;;;;;;494039;241;27799;-72
2023/11/15 08:21:57;;;;;;;5.17;2.30;;;8.90;99.90;;;;;;494050;241;27872;-71
2023/11/15 08:23:58;;;;;;;5.23;2.20;;;8.90;99.90;;;;;;494027;241;28205;-72
2023/11/15 08:26:02;;;;;;;6.67;2.47;;;8.90;99.90;;;;;;494063;241;28082;-71
2023/11/15 08:28:01;;;;;;;8.67;2.40;;;9.00;99.90;;;;;;493892;241;28119;-72
2023/11/15 08:30:05;;;;;;;10.43;2.50;;;9.00;99.90;;;;;;494098;241;27935;-72
2023/11/15 08:32:03;;;;;;;4.03;2.27;;;9.00;99.90;;;;;;493658;241;28549;-71
2023/11/15 08:34:04;;;;;;;4.97;2.03;;;9.10;99.90;;;;;;494095;241;28535;-74
2023/11/15 08:36:07;;;;;;;7.40;2.37;;;9.10;99.90;;;;;;494169;241;28306;-73
2023/11/15 08:38:07;;;;;;;11.30;2.30;;;9.10;99.90;;;;;;493959;241;28439;-72
2023/11/15 08:40:14;;;;;;;3.13;1.83;;;9.10;99.90;;;;;;494104;241;28407;-72
2023/11/15 08:42:16;;;;;;;5.33;2.33;;;9.10;99.90;;;;;;494147;241;27609;-72
2023/11/15 08:44:17;;;;;;;10.73;2.80;;;9.20;99.90;;;;;;494063;241;27970;-74
2023/11/15 08:46:19;;;;;;;13.53;2.47;;;9.20;99.90;;;;;;494074;241;28060;-72
2023/11/15 08:48:19;;;;;;;5.27;2.90;;;9.20;99.90;;;;;;494059;241;27850;-72
2023/11/15 08:50:22;;;;;;;12.93;2.90;;;9.30;99.90;;;;;;494131;241;27524;-72
2023/11/15 08:52:26;;;;;;;2.87;2.03;;;9.20;99.90;;;;;;493954;241;27917;-73
2023/11/15 08:54:23;;;;;;;8.10;1.87;;;9.20;99.90;;;;;;493689;241;27973;-72
2023/11/15 08:56:25;;;;;;;5.90;2.03;;;9.30;99.90;;;;;;494036;241;27770;-72
2023/11/15 08:58:27;;;;;;;6.30;2.30;;;9.30;99.90;;;;;;494051;241;28081;-72
2023/11/15 09:00:27;;;;;;;7.40;2.30;;;9.30;99.90;;;;;;493915;241;28105;-73
2023/11/15 09:02:30;;;;;;;7.73;2.73;;;9.30;99.90;;;;;;493926;241;27707;-72
2023/11/15 09:04:33;;;;;;;11.07;3.20;;;9.30;99.90;;;;;;493932;241;28561;-72
2023/11/15 09:06:31;;;;;;;6.17;1.97;;;9.40;99.90;;;;;;493792;241;28774;-72
2023/11/15 09:08:31;;;;;;;4.50;2.83;;;9.50;99.90;;;;;;493958;241;28459;-72
2023/11/15 09:10:33;;;;;;;3.97;1.60;;;9.50;99.90;;;;;;494123;241;28546;-73
2023/11/15 09:12:34;;;;;;;6.00;2.03;;;9.60;99.90;;;;;;494044;241;27851;-72
2023/11/15 09:14:35;;;;;;;7.90;3.00;;;9.50;99.90;;;;;;494004;241;27943;-72
2023/11/15 09:16:36;;;;;;;5.83;1.80;;;9.50;99.90;;;;;;494098;241;28025;-72
2023/11/15 09:18:38;;;;;;;4.17;2.17;;;9.40;99.90;;;;;;494137;241;27987;-73
2023/11/15 09:20:41;;;;;;;13.43;2.17;;;9.40;99.90;;;;;;494116;241;27989;-72
2023/11/15 09:22:40;;;;;;;8.53;2.30;;;9.40;99.90;;;;;;493907;241;27998;-72
2023/11/15 09:24:41;;;;;;;5.77;2.43;;;9.40;99.90;;;;;;494123;241;27937;-72
2023/11/15 09:26:44;;;;;;;5.33;2.17;;;9.40;99.90;;;;;;494072;241;28041;-72
2023/11/15 09:28:44;;;;;;;4.83;1.90;;;9.40;99.90;;;;;;493943;241;27942;-72
2023/11/15 09:30:45;;;;;;;7.70;2.10;;;9.50;99.90;;;;;;493985;241;27940;-71
2023/11/15 09:32:47;;;;;;;5.60;2.23;;;9.50;99.90;;;;;;494000;241;28151;-72
2023/11/15 09:34:48;;;;;;;3.13;2.27;;;9.50;99.90;;;;;;494001;241;28058;-71
2023/11/15 09:36:49;;;;;;;4.93;2.33;;;9.50;99.90;;;;;;494111;241;28008;-74
2023/11/15 09:38:50;;;;;;;3.03;1.63;;;9.50;99.90;;;;;;494120;241;27506;-72
2023/11/15 09:40:51;;;;;;;10.23;2.10;;;9.60;99.90;;;;;;494113;241;28441;-72
2023/11/15 09:42:53;;;;;;;5.70;2.00;;;9.60;99.90;;;;;;494083;241;28054;-72
2023/11/15 09:44:54;;;;;;;7.63;2.30;;;9.60;99.90;;;;;;493973;241;28428;-72
2023/11/15 09:46:57;;;;;;;3.57;1.53;;;9.70;99.90;;;;;;494031;241;28309;-72
2023/11/15 09:48:56;;;;;;;5.90;1.33;;;9.80;99.90;;;;;;493968;241;27947;-72
2023/11/15 09:50:58;;;;;;;8.83;1.90;;;9.90;99.90;;;;;;494093;241;28008;-72
2023/11/15 09:53:03;;;;;;;4.80;1.93;;;9.80;99.90;;;;;;494016;241;27994;-73
2023/11/15 09:55:01;;;;;;;3.97;1.60;;;9.70;99.90;;;;;;493740;241;28432;-72
2023/11/15 09:57:01;;;;;;;5.67;2.20;;;9.80;99.90;;;;;;494075;241;27884;-72
2023/11/15 09:59:03;;;;;;;9.30;2.00;;;9.80;99.90;;;;;;494103;241;28043;-72
2023/11/15 10:01:04;;;;;;;5.77;2.13;;;9.70;99.90;;;;;;494039;241;27995;-72
2023/11/15 10:03:05;;;;;;;4.93;2.20;;;9.70;99.90;;;;;;494085;241;28340;-72
2023/11/15 10:05:06;;;;;;;7.23;1.80;;;9.70;99.90;;;;;;494044;241;28045;-72
2023/11/15 10:07:11;;;;;;;10.50;1.90;;;9.60;99.90;;;;;;494006;241;27848;-72
2023/11/15 10:09:09;;;;;;;6.37;2.00;;;9.60;99.90;;;;;;493884;241;27937;-72
2023/11/15 10:11:10;;;;;;;9.70;2.40;;;9.60;99.90;;;;;;494110;241;27988;-71
2023/11/15 10:13:15;;;;;;;6.67;2.40;;;9.60;99.90;;;;;;494085;241;28097;-74
2023/11/15 10:15:13;;;;;;;5.30;2.43;;;9.70;99.90;;;;;;493842;241;27936;-71
2023/11/15 10:17:14;;;;;;;8.53;2.50;;;9.60;99.90;;;;;;494078;241;28539;-73
2023/11/15 10:19:15;;;;;;;7.27;2.40;;;9.60;99.90;;;;;;494142;241;28391;-71
2023/11/15 10:21:19;;;;;;;11.93;3.23;;;9.60;99.90;;;;;;494013;241;28506;-72
2023/11/15 10:23:18;;;;;;;12.30;2.70;;;9.60;99.90;;;;;;493867;241;28545;-73
2023/11/15 10:25:19;;;;;;;6.07;2.30;;;9.60;99.90;;;;;;494023;241;27981;-72
2023/11/15 10:27:20;;;;;;;5.83;2.40;;;9.60;99.90;;;;;;494038;241;27972;-72
2023/11/15 10:29:21;;;;;;;8.40;2.97;;;9.50;99.90;;;;;;493989;241;28135;-72
2023/11/15 10:31:23;;;;;;;11.40;2.10;;;9.50;99.90;;;;;;494037;241;27936;-72
2023/11/15 10:33:24;;;;;;;6.03;2.07;;;9.50;99.90;;;;;;494063;241;28061;-73
2023/11/15 10:35:29;;;;;;;12.37;2.70;;;9.50;99.90;;;;;;494076;241;27833;-72
2023/11/15 10:37:26;;;;;;;8.40;2.60;;;9.50;99.90;;;;;;493810;241;27960;-72
2023/11/15 10:39:28;;;;;;;14.57;2.73;;;9.60;99.90;;;;;;494113;241;28118;-73